Terminal Aerodrome Forecast
Issued by NWS Cleveland, OH

Home | Current Version | Previous Version | Graphics & Text | Print | Product List | Glossary On
Versions: 1 2 3 4 5 6 7 8 9 10 11 12 13 14
000
FTUS41 KCLE 212300
TAFTOL
TAF
KTOL 212329Z 2200/2224 26010KT P6SM FEW050 SCT090
     FM220800 26010KT P6SM VCSH BKN050 OVC090
     FM221000 33010KT P6SM BKN090
     FM221700 33012G20KT P6SM FEW040=

USA.gov is the U.S. government's official web portal to all federal, state and local government web resources and services.